Time;durP1;ratioP1;P1;durP2;ratioP2;P2;SDS_P1;SDS_P2;PMS_P1;PMS_P2;Temp;Humidity;BMP_temperature;BMP_pressure;BME280_temperature;BME280_humidity;BME280_pressure;Samples;Min_cycle;Max_cycle;Signal;HPM_P1;HPM_P2
2022/06/16 00:00:36;;;;;;;2.60;1.30;;;18.90;72.60;;;;;;5038524;28;20079;-71
2022/06/16 00:03:04;;;;;;;1.83;1.20;;;18.90;72.70;;;;;;5039099;28;20072;-70
2022/06/16 00:05:34;;;;;;;1.70;1.25;;;19.00;72.50;;;;;;5039624;28;20384;-70
2022/06/16 00:08:05;;;;;;;2.97;1.40;;;18.90;72.70;;;;;;5042005;28;20056;-71
2022/06/16 00:10:31;;;;;;;2.40;1.40;;;18.80;73.20;;;;;;5044962;28;20037;-71
2022/06/16 00:12:58;;;;;;;6.53;1.60;;;18.80;73.20;;;;;;5042439;28;20041;-71
2022/06/16 00:15:27;;;;;;;2.65;1.25;;;18.80;73.00;;;;;;5042814;28;20032;-71
2022/06/16 00:17:55;;;;;;;2.65;1.30;;;18.80;73.40;;;;;;5044916;28;20072;-70
2022/06/16 00:20:21;;;;;;;2.95;1.45;;;18.70;73.70;;;;;;5043224;28;20135;-71
2022/06/16 00:22:47;;;;;;;1.92;1.40;;;18.70;73.60;;;;;;5041018;28;20036;-70
2022/06/16 00:25:14;;;;;;;2.15;1.40;;;18.70;73.70;;;;;;5042176;28;20392;-71
2022/06/16 00:27:40;;;;;;;3.47;1.40;;;18.70;73.80;;;;;;5043079;28;20079;-71
2022/06/16 00:30:09;;;;;;;1.92;1.23;;;18.70;73.60;;;;;;5043722;28;20384;-71
2022/06/16 00:32:37;;;;;;;4.38;1.30;;;18.70;73.40;;;;;;5029016;28;20530;-72
2022/06/16 00:35:04;;;;;;;2.55;1.20;;;18.60;73.60;;;;;;5028906;28;20063;-71
2022/06/16 00:37:29;;;;;;;2.65;1.27;;;18.70;73.70;;;;;;5042585;28;20034;-72
2022/06/16 00:39:55;;;;;;;3.97;1.30;;;18.70;73.60;;;;;;5040570;28;20059;-72
2022/06/16 00:42:24;;;;;;;2.58;1.10;;;18.60;73.90;;;;;;5042274;28;20705;-72
2022/06/16 00:44:52;;;;;;;2.13;1.30;;;18.70;73.80;;;;;;5042382;28;20088;-72
2022/06/16 00:47:22;;;;;;;2.47;1.50;;;18.70;73.70;;;;;;5043931;28;20585;-71
2022/06/16 00:49:51;;;;;;;5.97;1.20;;;18.70;73.70;;;;;;5042882;28;20488;-71
2022/06/16 00:52:22;;;;;;;6.30;1.27;;;18.70;73.60;;;;;;5045328;28;20450;-72
2022/06/16 00:54:55;;;;;;;3.15;1.27;;;18.70;73.40;;;;;;5042197;28;20040;-72
2022/06/16 00:57:30;;;;;;;1.30;1.20;;;18.70;73.80;;;;;;5041796;28;20033;-71
2022/06/16 00:59:57;;;;;;;2.33;1.48;;;18.70;73.00;;;;;;5045965;28;20029;-72
2022/06/16 01:02:26;;;;;;;2.72;1.20;;;18.70;73.10;;;;;;5044547;28;20032;-72
2022/06/16 01:04:52;;;;;;;1.83;1.10;;;18.80;72.80;;;;;;5044632;28;20025;-72
2022/06/16 01:07:23;;;;;;;3.47;1.20;;;18.70;72.70;;;;;;5041980;28;20025;-72
2022/06/16 01:09:52;;;;;;;1.98;0.95;;;18.60;72.60;;;;;;5042492;28;20036;-72
2022/06/16 01:15:12;;;;;;;1.08;1.00;;;18.60;72.70;;;;;;5057334;28;20068;-73
2022/06/16 01:17:39;;;;;;;1.48;1.00;;;18.60;73.00;;;;;;5041663;28;20029;-73
2022/06/16 01:20:38;;;;;;;1.80;1.10;;;18.50;73.40;;;;;;5042664;28;20053;-71
2022/06/16 01:23:13;;;;;;;2.00;1.30;;;18.50;73.30;;;;;;5045691;28;20037;-72
2022/06/16 01:26:07;;;;;;;2.92;1.40;;;18.60;73.10;;;;;;5046514;28;20457;-72
2022/06/16 01:29:21;;;;;;;1.02;1.02;;;18.60;72.70;;;;;;5042508;28;20121;-71
2022/06/16 01:32:03;;;;;;;2.28;1.20;;;18.70;72.40;;;;;;5031285;28;20029;-71
2022/06/16 01:34:43;;;;;;;4.03;1.10;;;18.60;72.20;;;;;;5056515;28;20030;-72
2022/06/16 01:37:16;;;;;;;2.58;1.00;;;18.60;72.40;;;;;;5065787;28;20030;-72
2022/06/16 01:40:14;;;;;;;1.67;1.35;;;18.50;72.90;;;;;;5065657;28;20041;-72
2022/06/16 01:43:00;;;;;;;3.15;1.10;;;18.50;72.80;;;;;;5037636;28;20132;-71
2022/06/16 01:45:55;;;;;;;2.60;1.30;;;18.50;72.60;;;;;;5041900;28;20047;-71
2022/06/16 01:48:23;;;;;;;4.68;1.45;;;18.50;72.60;;;;;;5066642;28;20041;-70
2022/06/16 01:51:01;;;;;;;1.45;1.05;;;18.60;72.50;;;;;;5040320;28;20033;-71
2022/06/16 01:53:53;;;;;;;1.58;1.10;;;18.50;72.60;;;;;;5040682;28;20048;-71
2022/06/16 01:56:33;;;;;;;4.32;1.30;;;18.50;73.20;;;;;;5039359;28;20551;-72
2022/06/16 01:59:03;;;;;;;4.25;1.20;;;18.40;72.50;;;;;;5039708;28;20507;-71
2022/06/16 02:01:38;;;;;;;2.08;1.25;;;18.40;72.90;;;;;;5042638;28;20123;-71
2022/06/16 02:04:09;;;;;;;4.70;1.40;;;18.40;72.90;;;;;;5065388;28;20042;-71
2022/06/16 02:06:41;;;;;;;1.25;1.02;;;18.40;72.80;;;;;;5039814;28;20044;-71
2022/06/16 02:09:15;;;;;;;1.88;1.10;;;18.40;73.10;;;;;;5043529;28;20376;-72
2022/06/16 02:11:44;;;;;;;2.30;1.00;;;18.40;72.70;;;;;;5041981;28;20033;-70
2022/06/16 02:14:42;;;;;;;2.78;0.90;;;18.50;72.80;;;;;;5066327;28;20082;-71
2022/06/16 02:17:29;;;;;;;1.25;1.15;;;18.70;72.10;;;;;;5032820;28;20032;-71
2022/06/16 02:19:55;;;;;;;2.40;1.10;;;18.80;72.20;;;;;;5055188;28;20079;-71
2022/06/16 02:22:21;;;;;;;3.83;1.20;;;18.80;72.00;;;;;;5044269;28;20488;-71
2022/06/16 02:24:48;;;;;;;2.78;1.17;;;18.80;71.70;;;;;;5043658;28;20029;-72
2022/06/16 02:27:14;;;;;;;3.70;1.05;;;19.00;71.80;;;;;;5038226;28;20039;-70
2022/06/16 02:29:40;;;;;;;3.70;1.15;;;19.10;71.70;;;;;;5040257;28;20533;-70
2022/06/16 02:32:29;;;;;;;3.60;1.20;;;19.20;71.40;;;;;;5039430;28;20049;-70
2022/06/16 02:35:01;;;;;;;1.33;0.90;;;19.30;70.70;;;;;;5039738;28;20091;-70
2022/06/16 02:38:10;;;;;;;1.95;1.20;;;19.30;71.10;;;;;;5041456;28;20029;-69
2022/06/16 02:40:59;;;;;;;3.05;1.42;;;19.50;72.00;;;;;;5043497;28;20048;-70
2022/06/16 02:43:49;;;;;;;0.70;0.70;;;19.70;72.20;;;;;;5038971;28;20036;-70
2022/06/16 02:46:58;;;;;;;1.83;0.90;;;19.90;72.20;;;;;;5051475;28;20082;-70
2022/06/16 02:49:43;;;;;;;2.25;1.00;;;20.10;72.30;;;;;;5050271;28;20037;-71
2022/06/16 02:52:18;;;;;;;1.83;0.70;;;20.30;72.10;;;;;;5041098;28;20029;-71
2022/06/16 02:55:05;;;;;;;2.15;0.82;;;20.40;71.70;;;;;;5057479;28;20033;-72
2022/06/16 02:57:53;;;;;;;2.25;0.90;;;20.50;72.50;;;;;;5039048;28;20037;-71
2022/06/16 03:00:46;;;;;;;1.85;0.80;;;20.70;71.10;;;;;;5051520;28;20427;-71
2022/06/16 03:03:26;;;;;;;2.90;1.10;;;20.70;68.80;;;;;;5038617;28;20640;-71
2022/06/16 03:06:00;;;;;;;1.67;0.80;;;20.70;67.60;;;;;;5039749;28;20410;-71
2022/06/16 03:08:29;;;;;;;1.73;0.80;;;20.60;67.40;;;;;;5043383;28;20045;-71
2022/06/16 03:10:59;;;;;;;1.20;0.80;;;20.60;67.80;;;;;;5065288;28;20522;-71
2022/06/16 03:13:29;;;;;;;2.90;0.90;;;20.60;67.40;;;;;;5043475;28;20048;-71
2022/06/16 03:15:57;;;;;;;1.38;0.60;;;20.60;67.10;;;;;;5042174;28;20392;-72
2022/06/16 03:18:25;;;;;;;1.73;0.80;;;20.60;66.90;;;;;;5041574;28;20056;-73
2022/06/16 03:20:51;;;;;;;0.73;0.73;;;20.50;66.80;;;;;;5052647;28;20051;-73
2022/06/16 03:23:18;;;;;;;2.25;0.80;;;20.60;66.90;;;;;;5043029;28;20040;-71
2022/06/16 03:25:47;;;;;;;3.95;1.10;;;20.70;66.50;;;;;;5041698;28;20504;-72
2022/06/16 03:28:14;;;;;;;2.03;1.30;;;20.80;67.40;;;;;;5040631;28;20095;-72
2022/06/16 03:30:41;;;;;;;1.83;0.77;;;20.90;67.00;;;;;;5039999;28;20037;-72
2022/06/16 03:33:11;;;;;;;2.63;0.68;;;21.10;66.90;;;;;;5041693;28;20071;-72
2022/06/16 03:35:39;;;;;;;0.63;0.63;;;21.20;66.20;;;;;;5038191;28;20115;-72
2022/06/16 03:40:51;;;;;;;4.32;0.82;;;21.40;67.40;;;;;;5041657;28;20072;-70
2022/06/16 03:43:18;;;;;;;2.85;0.63;;;21.60;66.40;;;;;;5042725;28;20061;-70
2022/06/16 03:45:47;;;;;;;2.95;1.08;;;21.70;67.10;;;;;;5040677;28;20061;-72
2022/06/16 03:48:15;;;;;;;1.77;0.88;;;21.80;66.20;;;;;;5041412;28;20029;-73
2022/06/16 03:50:44;;;;;;;2.08;0.70;;;22.00;66.80;;;;;;5043051;28;20029;-73
2022/06/16 03:53:13;;;;;;;4.05;0.80;;;22.00;65.20;;;;;;5046046;28;20044;-74
2022/06/16 03:55:44;;;;;;;3.83;1.08;;;22.20;65.00;;;;;;5045704;28;20029;-72
2022/06/16 03:58:13;;;;;;;1.95;0.90;;;22.30;65.60;;;;;;5044999;28;20132;-71
2022/06/16 04:00:41;;;;;;;0.70;0.70;;;22.40;64.40;;;;;;5040126;28;20037;-72
2022/06/16 04:05:54;;;;;;;1.38;0.73;;;22.60;65.00;;;;;;5059270;28;20033;-71
2022/06/16 04:08:21;;;;;;;2.22;0.70;;;22.70;65.20;;;;;;5058411;28;20419;-70
2022/06/16 04:10:50;;;;;;;1.15;0.80;;;22.80;65.20;;;;;;5044601;28;20032;-70
2022/06/16 04:13:16;;;;;;;1.17;0.68;;;23.00;64.20;;;;;;5040844;28;20362;-70
2022/06/16 04:15:42;;;;;;;2.63;0.80;;;23.10;65.70;;;;;;5042991;28;20033;-70
2022/06/16 04:18:12;;;;;;;2.05;0.70;;;23.20;64.90;;;;;;5040330;28;20041;-70
2022/06/16 04:20:41;;;;;;;1.30;0.60;;;23.20;63.70;;;;;;5040990;28;20045;-70
2022/06/16 04:23:23;;;;;;;2.72;0.90;;;23.40;63.60;;;;;;5046220;28;20037;-70
2022/06/16 04:25:51;;;;;;;3.35;0.65;;;23.50;62.70;;;;;;5041974;28;20045;-70
2022/06/16 04:28:20;;;;;;;1.38;0.77;;;23.60;64.30;;;;;;5045458;28;20072;-71
2022/06/16 04:30:49;;;;;;;1.02;0.80;;;23.70;65.20;;;;;;5044891;28;21322;-71
2022/06/16 04:33:19;;;;;;;1.65;0.80;;;23.80;61.40;;;;;;5042276;28;20034;-71
2022/06/16 04:35:45;;;;;;;4.45;0.70;;;23.90;62.30;;;;;;5044073;28;20040;-71
2022/06/16 04:38:15;;;;;;;1.13;0.77;;;24.00;60.80;;;;;;5027710;28;20029;-71
2022/06/16 04:40:42;;;;;;;1.50;0.95;;;24.20;63.10;;;;;;5043329;28;20040;-71
2022/06/16 04:43:14;;;;;;;4.03;0.60;;;24.30;62.00;;;;;;5044806;28;20603;-71
2022/06/16 04:45:41;;;;;;;3.20;0.93;;;24.40;63.10;;;;;;5040889;28;20090;-71
2022/06/16 04:48:08;;;;;;;1.00;0.80;;;24.60;60.60;;;;;;5045225;28;20033;-72
2022/06/16 04:50:36;;;;;;;1.00;0.80;;;24.70;61.60;;;;;;5045591;28;20040;-72
2022/06/16 04:53:04;;;;;;;1.40;0.90;;;24.80;61.20;;;;;;5043510;28;20198;-70
2022/06/16 04:55:36;;;;;;;1.65;0.60;;;25.10;62.30;;;;;;5045197;28;20041;-73
2022/06/16 04:58:24;;;;;;;0.63;0.63;;;25.30;62.10;;;;;;5041174;28;20060;-73
2022/06/16 05:01:05;;;;;;;3.17;1.00;;;25.50;62.90;;;;;;5040058;28;20052;-74
2022/06/16 05:03:49;;;;;;;3.40;1.10;;;25.60;60.30;;;;;;5045450;28;20496;-74
2022/06/16 05:06:22;;;;;;;1.80;0.90;;;25.70;59.40;;;;;;5027909;28;20608;-74
2022/06/16 05:09:17;;;;;;;1.70;0.88;;;25.80;60.50;;;;;;5039207;28;20069;-74
2022/06/16 05:12:12;;;;;;;1.50;0.67;;;26.00;61.10;;;;;;4999300;28;20038;-74
2022/06/16 05:14:52;;;;;;;2.70;0.98;;;26.10;60.30;;;;;;4984110;28;20030;-74
2022/06/16 05:17:31;;;;;;;3.45;1.00;;;26.10;56.70;;;;;;4999523;28;20054;-74
2022/06/16 05:20:18;;;;;;;4.50;0.90;;;26.10;57.30;;;;;;4987690;28;20357;-74
2022/06/16 05:23:13;;;;;;;3.40;0.98;;;26.20;57.00;;;;;;5000378;28;20041;-73
2022/06/16 05:25:58;;;;;;;3.35;0.70;;;26.30;55.40;;;;;;5001475;28;20508;-74
2022/06/16 05:28:36;;;;;;;1.77;0.50;;;26.30;58.90;;;;;;5001359;28;20373;-74
2022/06/16 05:31:25;;;;;;;3.78;1.00;;;26.50;59.70;;;;;;4984781;28;20034;-74
2022/06/16 05:33:55;;;;;;;1.60;0.90;;;26.60;55.80;;;;;;4970129;28;20035;-74
2022/06/16 05:36:46;;;;;;;2.92;0.63;;;26.50;54.50;;;;;;4983973;28;20038;-74
2022/06/16 05:39:33;;;;;;;1.83;0.70;;;26.70;58.50;;;;;;4984642;28;20034;-73
2022/06/16 05:42:15;;;;;;;1.60;0.60;;;26.90;58.80;;;;;;4983565;28;20516;-75
2022/06/16 05:44:51;;;;;;;0.77;0.55;;;27.00;57.10;;;;;;4968923;28;20031;-74
2022/06/16 05:47:44;;;;;;;2.10;0.80;;;27.20;57.30;;;;;;4983312;28;20159;-73
2022/06/16 05:50:13;;;;;;;1.67;0.70;;;27.30;52.70;;;;;;4964502;28;20035;-73
2022/06/16 05:52:40;;;;;;;2.60;0.90;;;27.40;54.90;;;;;;4979753;28;20062;-73
2022/06/16 05:55:18;;;;;;;5.03;1.10;;;27.50;52.90;;;;;;4967358;28;20042;-74
2022/06/16 05:57:44;;;;;;;5.18;1.23;;;27.30;50.30;;;;;;4979046;28;20413;-74
2022/06/16 06:00:13;;;;;;;1.65;0.85;;;27.30;53.10;;;;;;4979601;28;20697;-74
2022/06/16 06:02:55;;;;;;;2.75;1.02;;;27.50;54.80;;;;;;4976562;28;20042;-74
2022/06/16 06:05:22;;;;;;;2.55;1.00;;;27.60;54.90;;;;;;4987001;28;20042;-74
2022/06/16 06:16:35;;;;;;;3.10;0.90;;;27.80;54.70;;;;;;5041829;28;20511;-74
2022/06/16 06:22:13;;;;;;;3.05;1.00;;;28.00;53.50;;;;;;5043236;28;20042;-73
2022/06/16 06:24:47;;;;;;;4.72;1.00;;;28.00;51.20;;;;;;5040700;28;20041;-71
2022/06/16 06:27:29;;;;;;;8.77;1.23;;;28.10;54.60;;;;;;5043999;28;20048;-73
2022/06/16 06:29:56;;;;;;;1.45;0.65;;;28.20;54.80;;;;;;5067200;28;20052;-73
2022/06/16 06:32:23;;;;;;;4.10;1.00;;;28.30;54.80;;;;;;5036646;28;20029;-72
2022/06/16 06:34:50;;;;;;;10.85;1.40;;;28.20;51.90;;;;;;5039426;28;20497;-77
2022/06/16 06:37:18;;;;;;;7.07;1.42;;;27.90;50.50;;;;;;5040172;28;20037;-71
2022/06/16 06:39:44;;;;;;;5.22;1.55;;;27.50;50.90;;;;;;5043499;28;20043;-70
2022/06/16 06:42:10;;;;;;;3.25;0.88;;;27.00;50.40;;;;;;5050741;28;20032;-73
2022/06/16 06:44:42;;;;;;;3.85;1.20;;;26.70;51.30;;;;;;5048971;28;20033;-73
2022/06/16 06:47:09;;;;;;;3.90;1.48;;;26.60;50.70;;;;;;5044058;28;20072;-74
2022/06/16 06:49:35;;;;;;;3.42;1.00;;;26.70;49.10;;;;;;5050708;28;20128;-73
2022/06/16 06:52:01;;;;;;;4.05;0.95;;;26.60;50.40;;;;;;5036234;28;20124;-73
2022/06/16 06:54:27;;;;;;;5.25;1.42;;;26.50;51.30;;;;;;5047274;28;20090;-73
2022/06/16 06:56:53;;;;;;;4.22;1.00;;;26.50;51.10;;;;;;5049806;28;20124;-73
2022/06/16 06:59:19;;;;;;;2.72;1.20;;;26.50;50.20;;;;;;5046869;28;20041;-73
2022/06/16 07:01:47;;;;;;;3.95;1.05;;;26.60;49.90;;;;;;5047228;28;20033;-74
2022/06/16 07:04:13;;;;;;;2.63;0.85;;;26.30;49.70;;;;;;5038163;28;20040;-74
2022/06/16 07:06:39;;;;;;;1.73;1.00;;;26.30;50.30;;;;;;5040754;28;20039;-73
2022/06/16 07:09:06;;;;;;;6.55;1.13;;;26.30;49.50;;;;;;5039299;28;20460;-72
2022/06/16 07:11:31;;;;;;;4.45;1.10;;;26.10;50.20;;;;;;5050412;28;20029;-72
2022/06/16 07:13:58;;;;;;;3.17;0.90;;;25.90;49.80;;;;;;5049932;28;20063;-72
2022/06/16 07:16:24;;;;;;;6.80;0.98;;;25.90;50.70;;;;;;5046673;28;20051;-71
2022/06/16 07:18:50;;;;;;;4.22;0.90;;;26.20;51.20;;;;;;5050833;28;20037;-70
2022/06/16 07:21:16;;;;;;;2.55;0.80;;;26.30;50.30;;;;;;5046497;28;20033;-71
2022/06/16 07:23:43;;;;;;;2.13;0.80;;;26.50;50.00;;;;;;5051432;28;20021;-71
2022/06/16 07:26:09;;;;;;;2.38;0.90;;;26.70;50.60;;;;;;5047855;28;20037;-72
2022/06/16 07:28:35;;;;;;;5.68;1.15;;;26.80;50.80;;;;;;5047115;28;20437;-71
2022/06/16 07:31:01;;;;;;;3.72;1.10;;;27.00;50.40;;;;;;5048365;28;20033;-71
2022/06/16 07:33:27;;;;;;;3.00;0.98;;;27.10;49.40;;;;;;5048814;28;20036;-70
2022/06/16 07:35:55;;;;;;;2.92;1.05;;;26.90;48.70;;;;;;5048844;28;20037;-71
2022/06/16 07:38:24;;;;;;;2.67;1.13;;;26.60;49.00;;;;;;5050270;28;20087;-73
2022/06/16 07:40:50;;;;;;;5.35;1.73;;;26.40;49.10;;;;;;5044174;28;20446;-71
2022/06/16 07:43:16;;;;;;;4.05;1.20;;;26.30;49.50;;;;;;5050458;28;20037;-70
2022/06/16 07:45:42;;;;;;;2.42;1.02;;;26.20;49.40;;;;;;5050860;28;20060;-71
2022/06/16 07:48:08;;;;;;;4.15;1.15;;;25.90;49.40;;;;;;5046112;28;20037;-70
2022/06/16 07:50:38;;;;;;;3.45;1.38;;;25.70;49.90;;;;;;5048185;28;20033;-72
2022/06/16 07:53:05;;;;;;;3.53;1.27;;;25.60;51.50;;;;;;5041626;28;20580;-71
2022/06/16 07:55:32;;;;;;;6.85;1.40;;;25.40;50.40;;;;;;5041297;28;20045;-70
2022/06/16 07:57:59;;;;;;;6.85;1.52;;;25.40;51.40;;;;;;5040016;28;20518;-72
2022/06/16 08:00:31;;;;;;;6.65;1.13;;;25.40;52.10;;;;;;5039672;28;20081;-72
2022/06/16 08:02:57;;;;;;;2.75;1.30;;;25.70;54.70;;;;;;5049455;28;20420;-74
2022/06/16 08:05:23;;;;;;;3.58;1.08;;;25.90;53.50;;;;;;5046111;28;20569;-73
2022/06/16 08:07:49;;;;;;;4.40;1.00;;;26.00;51.80;;;;;;5050735;28;20044;-73
2022/06/16 08:10:21;;;;;;;4.22;1.20;;;26.00;50.50;;;;;;5050595;28;20049;-71
2022/06/16 08:12:47;;;;;;;3.20;1.20;;;25.90;50.40;;;;;;5049686;28;20064;-74
2022/06/16 08:15:13;;;;;;;3.42;1.00;;;25.70;50.20;;;;;;5044617;28;20025;-73
2022/06/16 08:17:42;;;;;;;4.32;1.10;;;25.50;50.50;;;;;;5047437;28;20029;-74
2022/06/16 08:20:09;;;;;;;5.70;1.42;;;25.50;50.10;;;;;;5048855;28;20535;-73
2022/06/16 08:22:37;;;;;;;8.75;1.73;;;25.30;51.50;;;;;;5046632;28;20033;-73
2022/06/16 08:25:08;;;;;;;5.45;1.70;;;25.20;52.30;;;;;;5046960;28;20045;-73
2022/06/16 08:27:36;;;;;;;4.95;1.50;;;25.00;53.70;;;;;;5047856;28;20056;-73
2022/06/16 08:30:08;;;;;;;8.00;2.00;;;25.00;55.20;;;;;;5038492;28;20049;-72
2022/06/16 08:32:34;;;;;;;5.50;1.88;;;24.80;57.30;;;;;;5031381;28;20096;-72
2022/06/16 08:35:00;;;;;;;5.45;1.85;;;24.60;57.20;;;;;;5031515;28;20547;-72
2022/06/16 08:37:26;;;;;;;4.57;1.40;;;24.40;56.90;;;;;;5031927;28;20065;-73
2022/06/16 08:39:52;;;;;;;4.82;1.10;;;24.20;56.10;;;;;;5032305;28;20077;-73
2022/06/16 08:42:50;;;;;;;5.13;1.58;;;24.00;55.00;;;;;;5030829;28;20025;-72
2022/06/16 08:45:22;;;;;;;5.35;1.42;;;24.10;56.40;;;;;;5028293;28;20551;-72
2022/06/16 08:48:15;;;;;;;3.30;1.02;;;24.10;57.30;;;;;;5031132;28;20420;-72
2022/06/16 08:50:51;;;;;;;2.92;1.25;;;24.00;55.50;;;;;;5045997;28;20512;-73
2022/06/16 08:53:48;;;;;;;3.53;1.20;;;23.90;55.70;;;;;;5037482;28;20040;-72
2022/06/16 08:56:21;;;;;;;1.13;0.82;;;23.80;56.20;;;;;;5042473;28;20114;-73
2022/06/16 08:59:34;;;;;;;5.63;1.00;;;23.70;57.30;;;;;;5052653;28;20037;-74
2022/06/16 09:02:26;;;;;;;2.90;0.80;;;23.60;57.00;;;;;;5027563;28;20081;-71
2022/06/16 09:05:06;;;;;;;2.15;1.23;;;23.40;57.40;;;;;;5045284;28;20708;-72
2022/06/16 09:07:53;;;;;;;2.15;0.90;;;23.50;59.60;;;;;;5048666;28;20450;-71
2022/06/16 09:10:39;;;;;;;2.55;1.40;;;23.60;59.70;;;;;;5045218;28;20033;-71
2022/06/16 09:13:17;;;;;;;1.35;1.00;;;23.80;57.60;;;;;;5033154;28;20087;-71
2022/06/16 09:16:07;;;;;;;5.70;1.20;;;23.90;58.90;;;;;;5039017;28;20116;-71
2022/06/16 09:18:51;;;;;;;4.20;1.30;;;24.00;60.20;;;;;;5052095;28;20036;-71
2022/06/16 09:21:40;;;;;;;5.90;1.20;;;24.10;58.50;;;;;;5049846;28;20040;-72
2022/06/16 09:24:27;;;;;;;2.95;1.25;;;24.10;59.20;;;;;;5044327;28;20094;-70
2022/06/16 09:27:04;;;;;;;3.65;1.20;;;24.10;58.20;;;;;;5049721;28;20021;-72
2022/06/16 09:30:00;;;;;;;3.20;1.02;;;24.10;57.80;;;;;;5050857;28;20086;-72
2022/06/16 09:32:44;;;;;;;6.03;1.00;;;24.10;56.70;;;;;;5048419;28;20029;-71
2022/06/16 09:35:14;;;;;;;1.90;1.02;;;24.00;56.60;;;;;;5046338;28;20030;-71
2022/06/16 09:37:54;;;;;;;4.13;1.00;;;24.10;55.20;;;;;;5050582;28;20033;-71
2022/06/16 09:40:31;;;;;;;1.98;0.80;;;24.00;55.40;;;;;;5050270;28;20094;-69
2022/06/16 09:43:29;;;;;;;4.05;1.15;;;24.00;54.00;;;;;;5047815;28;20076;-72
2022/06/16 09:46:03;;;;;;;5.25;0.95;;;24.00;53.70;;;;;;5035853;28;20602;-72
2022/06/16 09:48:52;;;;;;;2.35;0.98;;;24.10;54.30;;;;;;5045427;28;20029;-71
2022/06/16 09:51:29;;;;;;;2.92;1.10;;;24.00;52.10;;;;;;5038862;28;20064;-72
2022/06/16 09:54:10;;;;;;;2.05;0.82;;;24.10;54.70;;;;;;5041639;28;20031;-71
2022/06/16 09:57:32;;;;;;;4.57;1.27;;;24.10;53.60;;;;;;5041550;28;20472;-81
2022/06/16 10:00:11;;;;;;;13.82;1.42;;;24.10;53.10;;;;;;5007721;28;20516;-73
2022/06/16 10:02:52;;;;;;;7.60;0.90;;;24.10;55.00;;;;;;5014179;28;20029;-78
2022/06/16 10:05:37;;;;;;;10.57;1.70;;;24.20;54.70;;;;;;5014441;28;20394;-72
2022/06/16 10:08:26;;;;;;;3.92;1.30;;;24.30;54.20;;;;;;5014817;28;20493;-71
2022/06/16 10:11:13;;;;;;;5.18;1.35;;;24.20;54.40;;;;;;5016361;28;20041;-71
2022/06/16 10:14:00;;;;;;;4.10;1.33;;;24.20;52.40;;;;;;5026077;28;20041;-72
2022/06/16 10:16:35;;;;;;;11.30;1.15;;;24.10;53.20;;;;;;5019401;28;20034;-72
2022/06/16 10:19:01;;;;;;;4.93;0.82;;;24.10;53.50;;;;;;5020796;28;20041;-70
2022/06/16 10:21:27;;;;;;;8.48;1.30;;;24.10;54.20;;;;;;5005860;28;20045;-70
2022/06/16 10:23:59;;;;;;;4.57;1.08;;;24.20;53.30;;;;;;5022087;28;20084;-70
2022/06/16 10:26:25;;;;;;;9.77;1.00;;;24.20;52.40;;;;;;5015262;28;20045;-70
2022/06/16 10:29:09;;;;;;;5.65;0.93;;;24.20;52.80;;;;;;5014440;28;20034;-70
2022/06/16 10:31:45;;;;;;;2.13;0.50;;;24.20;51.70;;;;;;5014987;28;20124;-69
2022/06/16 10:34:36;;;;;;;3.55;0.90;;;24.20;50.30;;;;;;5014273;28;20060;-69
2022/06/16 10:37:07;;;;;;;2.85;1.15;;;24.20;51.60;;;;;;5042734;28;20045;-69
2022/06/16 10:39:48;;;;;;;5.55;1.23;;;24.10;51.00;;;;;;5047296;28;20045;-69
2022/06/16 10:42:18;;;;;;;2.28;0.80;;;24.10;50.10;;;;;;5042997;28;20025;-69
2022/06/16 10:44:52;;;;;;;2.92;0.73;;;24.00;50.20;;;;;;5051410;28;20102;-69
2022/06/16 10:47:52;;;;;;;2.67;0.77;;;24.10;50.50;;;;;;5051132;28;20037;-69
2022/06/16 10:50:30;;;;;;;2.35;0.98;;;24.10;52.40;;;;;;5042813;28;20041;-69
2022/06/16 10:53:19;;;;;;;3.03;1.05;;;24.10;51.50;;;;;;5050372;28;20318;-69
2022/06/16 10:55:47;;;;;;;1.67;0.77;;;24.00;51.10;;;;;;5048527;28;20045;-71
2022/06/16 10:58:23;;;;;;;4.75;1.33;;;24.00;51.20;;;;;;5029742;28;20539;-69
2022/06/16 11:01:22;;;;;;;4.53;0.95;;;23.90;50.30;;;;;;5031464;28;20516;-69
2022/06/16 11:04:13;;;;;;;3.63;1.13;;;23.90;51.90;;;;;;4992382;28;20546;-69
2022/06/16 11:06:47;;;;;;;3.42;0.90;;;23.90;52.50;;;;;;5004842;28;20596;-69
2022/06/16 11:09:18;;;;;;;4.68;0.93;;;23.90;51.20;;;;;;4989499;28;20121;-69
2022/06/16 11:11:53;;;;;;;4.78;0.82;;;23.90;51.80;;;;;;4980019;28;20776;-71
2022/06/16 11:14:42;;;;;;;4.85;1.10;;;23.90;52.10;;;;;;5006435;28;20400;-69
2022/06/16 11:17:17;;;;;;;2.25;1.25;;;23.90;51.50;;;;;;5002769;28;20041;-75
2022/06/16 11:19:48;;;;;;;3.58;0.75;;;24.00;52.70;;;;;;5005741;28;20493;-75
2022/06/16 11:22:15;;;;;;;3.20;1.60;;;23.90;50.20;;;;;;5009346;28;20710;-79
2022/06/16 11:24:59;;;;;;;2.25;1.30;;;23.80;48.80;;;;;;5005070;28;20057;-79
2022/06/16 11:27:25;;;;;;;4.05;3.65;;;23.80;48.10;;;;;;4997818;28;20030;-79
2022/06/16 11:29:51;;;;;;;8.88;7.10;;;23.70;49.70;;;;;;4998813;28;20034;-78
2022/06/16 11:32:31;;;;;;;3.03;2.72;;;23.80;52.30;;;;;;5000756;28;20173;-80
2022/06/16 11:34:57;;;;;;;2.58;1.45;;;23.70;50.00;;;;;;4983495;28;20472;-79
2022/06/16 11:37:48;;;;;;;1.55;1.40;;;23.70;49.00;;;;;;4998316;28;20034;-80
2022/06/16 11:40:36;;;;;;;1.55;0.82;;;23.70;49.00;;;;;;5022587;28;20037;-79
2022/06/16 11:43:29;;;;;;;3.50;0.95;;;23.60;48.90;;;;;;5039239;28;20034;-79
2022/06/16 11:46:24;;;;;;;1.33;0.80;;;23.60;49.30;;;;;;5038709;28;20036;-80
2022/06/16 11:49:15;;;;;;;6.55;1.00;;;23.60;48.60;;;;;;5039283;28;20038;-79
2022/06/16 11:51:50;;;;;;;3.35;1.00;;;23.60;49.50;;;;;;5039755;28;20431;-78
2022/06/16 11:54:16;;;;;;;;;;;23.60;49.40;;;;;;5039491;28;20033;-79
2022/06/16 11:56:52;;;;;;;1.88;0.90;;;23.60;50.30;;;;;;5040535;28;20329;-83
2022/06/16 11:59:50;;;;;;;2.85;1.30;;;23.60;50.30;;;;;;5026498;28;20034;-84
2022/06/16 12:02:44;;;;;;;4.72;1.23;;;23.60;51.00;;;;;;5039075;28;20038;-85
2022/06/16 12:05:33;;;;;;;3.63;1.02;;;23.60;52.20;;;;;;5044035;28;20526;-84
2022/06/16 12:08:11;;;;;;;2.80;0.90;;;23.60;51.80;;;;;;5060267;28;20047;-84
2022/06/16 12:10:37;;;;;;;1.70;1.13;;;23.60;52.80;;;;;;5043167;28;20041;-85
2022/06/16 12:13:34;;;;;;;2.75;1.30;;;23.60;52.60;;;;;;5041966;28;20048;-86
2022/06/16 12:16:36;;;;;;;2.17;1.30;;;23.50;50.40;;;;;;5042998;28;20041;-86
2022/06/16 12:19:41;;;;;;;1.83;1.02;;;23.40;51.80;;;;;;5042729;28;20037;-86
2022/06/16 12:22:18;;;;;;;4.10;0.95;;;23.50;52.80;;;;;;4982472;28;20046;-86
2022/06/16 12:25:09;;;;;;;2.55;1.10;;;23.50;51.70;;;;;;4969482;28;20105;-84
2022/06/16 12:27:40;;;;;;;3.13;0.93;;;23.60;53.00;;;;;;4969980;28;20905;-87
2022/06/16 12:30:20;;;;;;;4.28;0.90;;;23.70;53.20;;;;;;4968944;28;20116;-88
2022/06/16 12:32:46;;;;;;;3.10;1.05;;;23.70;52.20;;;;;;4980414;28;20109;-88
2022/06/16 12:35:48;;;;;;;4.05;1.08;;;23.80;53.20;;;;;;4983953;28;20514;-84
2022/06/16 12:38:17;;;;;;;1.73;1.00;;;23.90;52.30;;;;;;4981174;28;20030;-87
2022/06/16 12:40:48;;;;;;;2.35;0.95;;;23.90;52.50;;;;;;4984741;28;20445;-85
2022/06/16 12:43:39;;;;;;;1.48;1.02;;;23.90;51.70;;;;;;4982637;28;20046;-82
2022/06/16 12:46:17;;;;;;;3.13;1.13;;;24.00;52.70;;;;;;4982385;28;20038;-85
2022/06/16 12:48:52;;;;;;;4.35;1.10;;;24.00;53.30;;;;;;4979335;28;20037;-87
2022/06/16 12:51:25;;;;;;;3.10;0.98;;;24.00;50.60;;;;;;4971180;28;20125;-86
2022/06/16 12:54:02;;;;;;;6.88;1.10;;;24.00;49.90;;;;;;4981219;28;20387;-84
2022/06/16 12:57:00;;;;;;;1.70;0.65;;;24.00;49.80;;;;;;4983360;28;20500;-79
2022/06/16 12:59:42;;;;;;;3.65;1.17;;;24.00;51.20;;;;;;5037724;28;20041;-84
2022/06/16 13:02:14;;;;;;;2.30;1.40;;;23.90;49.50;;;;;;5042877;28;20712;-82
2022/06/16 13:04:42;;;;;;;2.35;0.98;;;23.90;50.70;;;;;;5044665;28;20029;-80
2022/06/16 13:07:14;;;;;;;1.30;0.98;;;23.90;50.00;;;;;;5040403;28;20040;-79
2022/06/16 13:09:42;;;;;;;2.47;0.85;;;23.90;52.00;;;;;;5044062;28;20059;-83
2022/06/16 13:12:21;;;;;;;4.00;0.60;;;23.90;51.80;;;;;;5042693;28;20076;-79
2022/06/16 13:14:58;;;;;;;0.88;0.60;;;23.90;49.90;;;;;;5060098;28;20025;-83
2022/06/16 13:17:31;;;;;;;3.92;1.20;;;23.90;49.00;;;;;;5041696;28;20037;-80
2022/06/16 13:20:01;;;;;;;3.72;0.82;;;23.90;50.30;;;;;;5041036;28;20408;-83
2022/06/16 13:22:40;;;;;;;3.40;0.70;;;23.90;50.10;;;;;;5042979;28;20079;-83
2022/06/16 13:25:45;;;;;;;1.67;0.75;;;24.00;50.40;;;;;;5040245;28;20025;-83
2022/06/16 13:28:25;;;;;;;1.38;0.75;;;24.00;48.90;;;;;;5040978;28;20033;-84
2022/06/16 13:31:24;;;;;;;4.00;0.90;;;24.00;50.20;;;;;;5040312;28;20032;-82
2022/06/16 13:33:53;;;;;;;3.63;0.77;;;24.00;50.50;;;;;;5044173;28;20040;-82
2022/06/16 13:36:22;;;;;;;4.63;1.15;;;24.00;49.40;;;;;;5039727;28;20381;-84
2022/06/16 13:38:53;;;;;;;2.47;1.00;;;24.00;48.50;;;;;;5043509;28;20072;-80
2022/06/16 13:41:46;;;;;;;2.42;1.60;;;24.10;48.70;;;;;;5066492;28;20096;-84
2022/06/16 13:44:20;;;;;;;2.97;1.27;;;24.10;49.00;;;;;;5041792;28;20033;-79
2022/06/16 13:47:18;;;;;;;2.92;1.60;;;24.10;48.10;;;;;;5041769;28;20029;-86
2022/06/16 13:49:47;;;;;;;2.15;1.00;;;24.10;48.10;;;;;;5040974;28;20048;-81
2022/06/16 13:52:13;;;;;;;2.38;0.88;;;24.00;48.70;;;;;;5040158;28;20443;-82